Time;durP1;ratioP1;P1;durP2;ratioP2;P2;SDS_P1;SDS_P2;PMS_P1;PMS_P2;Temp;Humidity;BMP_temperature;BMP_pressure;BME280_temperature;BME280_humidity;BME280_pressure;Samples;Min_cycle;Max_cycle;Signal;HPM_P1;HPM_P2
2023/08/15 00:01:58;;;;;;;;;3.50;3.50;;;;;27.24;51.57;100435.22;5055138;28;45376;-67
2023/08/15 00:04:23;;;;;;;;;5.00;5.00;;;;;27.38;51.86;100460.66;5054859;28;45371;-65
2023/08/15 00:06:48;;;;;;;;;4.50;4.50;;;;;27.39;51.53;100446.16;5055435;28;45466;-63
2023/08/15 00:09:14;;;;;;;;;4.00;4.00;;;;;27.43;51.44;100460.13;5054681;28;45395;-65
2023/08/15 00:11:39;;;;;;;;;4.00;4.00;;;;;27.44;51.68;100451.00;5036383;28;51137;-66
2023/08/15 00:14:04;;;;;;;;;7.00;6.50;;;;;27.24;51.56;100421.72;5054775;28;53184;-67
2023/08/15 00:16:29;;;;;;;;;5.75;5.75;;;;;27.42;51.50;100459.28;5054580;28;45945;-69
2023/08/15 00:18:55;;;;;;;;;4.25;4.25;;;;;27.44;51.60;100460.97;5054216;28;58284;-68
2023/08/15 00:21:20;;;;;;;;;5.00;5.00;;;;;27.45;51.35;100435.66;5054284;28;51277;-68
2023/08/15 00:23:46;;;;;;;;;4.00;4.00;;;;;27.43;51.52;100452.03;5054741;28;45463;-65
2023/08/15 00:26:11;;;;;;;;;4.00;4.00;;;;;27.37;51.04;100450.03;5054923;28;45650;-66
2023/08/15 00:28:36;;;;;;;;;4.00;4.00;;;;;27.16;50.74;100446.06;5055040;28;47019;-68
2023/08/15 00:31:01;;;;;;;;;3.00;3.00;;;;;27.13;51.20;100443.72;5054671;28;45348;-68
2023/08/15 00:33:27;;;;;;;;;4.00;4.00;;;;;27.07;50.59;100447.09;5054432;28;55668;-67
2023/08/15 00:35:52;;;;;;;;;3.25;3.25;;;;;27.05;50.78;100446.44;5055298;28;45496;-65
2023/08/15 00:38:17;;;;;;;;;3.25;3.25;;;;;27.10;50.21;100450.31;5036390;28;52919;-64
2023/08/15 00:40:43;;;;;;;;;4.00;4.00;;;;;27.12;50.36;100450.13;5054159;28;45405;-66
2023/08/15 00:43:12;;;;;;;;;3.00;3.00;;;;;27.08;50.07;100451.50;5055068;28;45400;-68
2023/08/15 00:45:41;;;;;;;;;3.50;3.50;;;;;27.15;50.04;100455.16;5055306;28;45552;-67
2023/08/15 00:48:07;;;;;;;;;3.75;3.75;;;;;27.15;49.72;100457.88;5054613;28;46372;-70
2023/08/15 00:50:36;;;;;;;;;4.00;4.00;;;;;27.21;49.85;100459.88;5035954;28;45398;-69
2023/08/15 00:53:03;;;;;;;;;4.25;4.25;;;;;27.24;49.95;100461.41;5055142;28;45416;-65
2023/08/15 00:55:29;;;;;;;;;4.00;4.00;;;;;27.24;49.73;100458.69;5036662;28;45514;-64
2023/08/15 00:57:55;;;;;;;;;4.25;4.25;;;;;27.31;49.55;100458.81;5054332;28;45618;-65
2023/08/15 01:00:21;;;;;;;;;3.00;3.00;;;;;27.33;49.25;100460.34;5057084;28;45450;-65
2023/08/15 01:02:46;;;;;;;;;3.00;3.00;;;;;27.30;48.94;100459.84;5058070;28;45355;-64
2023/08/15 01:05:15;;;;;;;;;2.75;2.75;;;;;27.29;49.55;100458.16;5057996;28;45458;-63
2023/08/15 01:07:42;;;;;;;;;3.00;2.00;;;;;27.20;49.48;100442.00;5057672;28;45367;-64
2023/08/15 01:10:07;;;;;;;;;3.50;3.50;;;;;27.29;49.20;100450.91;5057785;28;45467;-66
2023/08/15 01:13:06;;;;;;;;;4.25;4.25;;;;;27.30;49.18;100454.44;5057833;28;45237;-62
2023/08/15 01:15:37;;;;;;;;;2.00;2.00;;;;;27.30;49.25;100454.44;5057878;28;45403;-64
2023/08/15 01:18:17;;;;;;;;;4.50;4.50;;;;;27.26;49.26;100462.91;5057424;28;45350;-66
2023/08/15 01:20:42;;;;;;;;;4.25;4.25;;;;;27.26;49.11;100460.19;5058281;28;45426;-66
2023/08/15 01:23:08;;;;;;;;;4.00;4.00;;;;;27.29;48.86;100463.56;5058067;28;45352;-66
2023/08/15 01:25:42;;;;;;;;;4.00;4.00;;;;;27.26;48.64;100459.38;5058646;28;45339;-64
2023/08/15 01:28:13;;;;;;;;;3.75;3.25;;;;;27.25;48.56;100458.50;5039668;28;46092;-68
2023/08/15 01:30:57;;;;;;;;;4.25;4.25;;;;;27.26;48.55;100471.00;5057952;28;45390;-67
2023/08/15 01:33:27;;;;;;;;;4.75;4.75;;;;;27.22;49.07;100463.44;5057418;28;45277;-64
2023/08/15 01:36:01;;;;;;;;;3.50;3.50;;;;;27.22;48.71;100464.25;5039381;28;45410;-67
2023/08/15 01:38:44;;;;;;;;;3.00;3.00;;;;;27.21;48.44;100473.38;5057153;28;46303;-63
2023/08/15 01:41:14;;;;;;;;;5.00;5.00;;;;;27.20;48.75;100477.09;5057671;28;45419;-69
2023/08/15 01:43:42;;;;;;;;;3.00;3.00;;;;;27.18;48.51;100473.72;5057659;28;45440;-66
2023/08/15 01:46:08;;;;;;;;;3.25;3.25;;;;;27.19;48.75;100479.97;5056566;28;45506;-66
2023/08/15 01:48:38;;;;;;;;;4.75;4.75;;;;;27.19;48.97;100478.09;5056995;28;46841;-68
2023/08/15 01:51:04;;;;;;;;;3.00;3.00;;;;;27.12;48.79;100472.56;5057033;28;45401;-65
2023/08/15 01:53:29;;;;;;;;;4.50;4.50;;;;;27.17;48.96;100482.00;5057376;28;45364;-65
2023/08/15 01:55:54;;;;;;;;;4.00;4.00;;;;;27.23;48.62;100495.63;5057474;28;45506;-68
2023/08/15 01:58:20;;;;;;;;;4.25;4.25;;;;;27.30;48.93;100503.03;5056592;28;59464;-68
2023/08/15 02:00:46;;;;;;;;;5.00;5.00;;;;;27.26;48.97;100494.47;5057114;28;45214;-69
2023/08/15 02:03:11;;;;;;;;;5.25;4.50;;;;;27.28;48.88;100503.25;5057455;28;45319;-67
2023/08/15 02:05:37;;;;;;;;;5.25;5.00;;;;;27.27;49.21;100515.06;5057155;28;45207;-65
2023/08/15 02:08:02;;;;;;;;;4.00;4.00;;;;;27.25;48.68;100517.09;5056112;28;66158;-64
2023/08/15 02:10:27;;;;;;;;;4.50;4.50;;;;;27.22;48.76;100507.47;5056418;28;45402;-66
2023/08/15 02:12:53;;;;;;;;;4.00;4.00;;;;;27.22;48.87;100512.84;5056416;28;54728;-68
2023/08/15 02:15:18;;;;;;;;;3.75;3.75;;;;;27.06;49.07;100496.72;5056923;28;45183;-67
2023/08/15 02:17:44;;;;;;;;;4.00;4.00;;;;;27.05;48.58;100508.53;5038899;28;48037;-69
2023/08/15 02:20:09;;;;;;;;;4.00;4.00;;;;;26.94;48.83;100509.72;5057281;28;45410;-64
2023/08/15 02:22:35;;;;;;;;;5.00;5.00;;;;;26.79;49.15;100506.84;5056624;28;45269;-64
2023/08/15 02:25:00;;;;;;;;;3.00;3.00;;;;;26.72;49.43;100516.63;5038932;28;45344;-63
2023/08/15 02:27:25;;;;;;;;;4.50;4.50;;;;;26.60;49.28;100510.72;5056145;28;53264;-67
2023/08/15 02:29:51;;;;;;;;;4.00;4.00;;;;;26.51;49.11;100508.03;5056685;28;45394;-68
2023/08/15 02:32:17;;;;;;;;;3.25;3.25;;;;;26.60;49.22;100511.59;5056422;28;45393;-69
2023/08/15 02:34:43;;;;;;;;;4.00;4.00;;;;;26.60;49.32;100510.72;5057273;28;45327;-67
2023/08/15 02:37:08;;;;;;;;;2.75;2.75;;;;;26.50;49.53;100505.50;5037415;28;69157;-68
2023/08/15 02:39:33;;;;;;;;;4.00;4.00;;;;;26.43;49.35;100507.16;5056422;28;45363;-68
2023/08/15 02:41:59;;;;;;;;;5.00;5.00;;;;;26.43;49.52;100507.16;5038207;28;45763;-68
2023/08/15 02:44:24;;;;;;;;;4.50;4.50;;;;;26.46;49.22;100506.84;5056763;28;45169;-66
2023/08/15 02:46:49;;;;;;;;;5.25;5.25;;;;;26.46;49.55;100514.94;5056769;28;45416;-65
2023/08/15 02:49:14;;;;;;;;;6.75;6.75;;;;;26.46;49.67;100501.44;5057708;28;45296;-69
2023/08/15 02:51:40;;;;;;;;;3.00;3.00;;;;;26.47;49.62;100500.44;5057692;28;45296;-67
2023/08/15 02:54:05;;;;;;;;;4.50;4.50;;;;;26.39;49.39;100494.03;5057540;28;45550;-68
2023/08/15 02:56:31;;;;;;;;;5.00;5.00;;;;;26.49;49.43;100507.34;5057044;28;45274;-63
2023/08/15 02:58:56;;;;;;;;;4.00;4.00;;;;;26.42;49.63;100500.94;5056250;28;45332;-66
2023/08/15 03:01:21;;;;;;;;;6.00;6.00;;;;;26.39;49.81;100496.72;5056181;28;50968;-64
2023/08/15 03:03:47;;;;;;;;;5.25;5.25;;;;;26.40;49.49;100502.97;5056554;28;45316;-66
2023/08/15 03:06:12;;;;;;;;;3.00;3.00;;;;;26.36;49.55;100507.84;5056704;28;49829;-67
2023/08/15 03:08:38;;;;;;;;;4.00;4.00;;;;;26.33;49.85;100513.56;5056043;28;52215;-70
2023/08/15 03:11:03;;;;;;;;;2.00;2.00;;;;;26.31;49.92;100496.72;5056696;28;45187;-67
2023/08/15 03:13:28;;;;;;;;;3.75;3.75;;;;;26.28;49.85;100501.63;5056556;28;45245;-70
2023/08/15 03:15:56;;;;;;;;;3.00;3.00;;;;;26.24;49.90;100501.09;5055500;28;50104;-70
2023/08/15 03:18:21;;;;;;;;;4.25;4.25;;;;;26.14;50.01;100497.69;5055708;28;45410;-65
2023/08/15 03:20:56;;;;;;;;;5.00;5.00;;;;;26.08;50.02;100494.63;5056002;28;45386;-67
2023/08/15 03:23:21;;;;;;;;;6.25;6.25;;;;;26.05;50.06;100500.38;5054951;28;45462;-68
2023/08/15 03:26:01;;;;;;;;;4.00;4.00;;;;;26.02;50.54;100494.47;5055983;28;46198;-70
2023/08/15 03:28:26;;;;;;;;;6.25;6.25;;;;;25.94;50.26;100488.03;5055739;28;45191;-66
2023/08/15 03:30:53;;;;;;;;;3.75;3.75;;;;;25.94;50.58;100501.50;5054537;28;45327;-70
2023/08/15 03:33:18;;;;;;;;;5.00;5.00;;;;;25.75;50.63;100489.19;5054906;28;45539;-66
2023/08/15 03:35:48;;;;;;;;;5.00;5.00;;;;;25.88;50.63;100515.63;5053437;28;46298;-69
2023/08/15 03:38:15;;;;;;;;;4.25;4.25;;;;;25.88;50.54;100523.72;5055957;28;45406;-64
2023/08/15 03:40:41;;;;;;;;;5.75;5.50;;;;;25.89;50.79;100532.66;5055299;28;45375;-71
2023/08/15 03:43:06;;;;;;;;;4.00;4.00;;;;;25.80;50.77;100539.84;5055753;28;45248;-69
2023/08/15 03:45:32;;;;;;;;;5.00;5.00;;;;;25.77;50.66;100534.78;5055006;28;59544;-63
2023/08/15 03:47:57;;;;;;;;;4.50;4.50;;;;;25.76;50.74;100544.75;5055306;28;45286;-64
2023/08/15 03:50:22;;;;;;;;;4.75;4.75;;;;;25.72;51.15;100543.38;5054696;28;65189;-63
2023/08/15 03:52:47;;;;;;;;;4.75;4.75;;;;;25.65;51.13;100539.66;5055493;28;49967;-64
2023/08/15 03:55:13;;;;;;;;;3.75;3.75;;;;;25.68;51.22;100547.41;5055254;28;46012;-65
2023/08/15 03:57:38;;;;;;;;;3.50;3.50;;;;;25.64;51.72;100554.94;5056980;28;45261;-63
2023/08/15 04:00:05;;;;;;;;;4.75;4.75;;;;;25.69;51.46;100561.69;5057920;28;63904;-64
2023/08/15 04:02:30;;;;;;;;;3.50;3.50;;;;;25.65;51.36;100566.59;5056275;28;45515;-66
2023/08/15 04:04:56;;;;;;;;;6.00;5.25;;;;;25.65;51.36;100570.09;5055233;28;45945;-67
2023/08/15 04:07:21;;;;;;;;;5.00;5.00;;;;;25.62;51.83;100586.59;5055392;28;45350;-68
2023/08/15 04:09:46;;;;;;;;;0.00;0.00;;;;;25.41;51.96;100592.31;5055732;28;45217;-67
2023/08/15 04:12:11;;;;;;;;;5.00;5.00;;;;;25.31;52.52;100586.19;5055394;28;45309;-66
2023/08/15 04:14:37;;;;;;;;;4.00;4.00;;;;;25.36;52.37;100591.94;5055064;28;45379;-66
2023/08/15 04:17:05;;;;;;;;;2.75;2.75;;;;;25.50;52.59;100588.72;5055080;28;45414;-66
2023/08/15 04:19:30;;;;;;;;;4.00;4.00;;;;;25.36;52.58;100591.94;5055298;28;45364;-66
2023/08/15 04:21:55;;;;;;;;;7.00;7.00;;;;;25.31;52.60;100607.75;5055218;28;45268;-67
2023/08/15 04:24:21;;;;;;;;;3.25;3.00;;;;;25.28;52.97;100602.66;5055072;28;46753;-63
2023/08/15 04:26:46;;;;;;;;;5.50;4.00;;;;;25.29;52.97;100607.06;5055194;28;45163;-65
2023/08/15 04:29:11;;;;;;;;;4.75;4.75;;;;;25.29;52.94;100604.34;5055081;28;45605;-65
2023/08/15 04:31:37;;;;;;;;;3.00;3.00;;;;;25.28;53.13;100606.22;5055797;28;45178;-64
2023/08/15 04:34:02;;;;;;;;;5.00;5.00;;;;;25.27;52.87;100609.06;5055520;28;45320;-66
2023/08/15 04:36:28;;;;;;;;;7.25;6.00;;;;;25.20;53.01;100608.84;5058561;28;45234;-64
2023/08/15 04:38:53;;;;;;;;;4.25;4.25;;;;;25.17;53.43;100610.00;5058512;28;45299;-64
2023/08/15 04:41:18;;;;;;;;;5.00;5.00;;;;;25.18;53.37;100605.47;5059144;28;45225;-62
2023/08/15 04:43:43;;;;;;;;;5.00;5.00;;;;;25.19;53.11;100601.78;5062442;28;62044;-64
2023/08/15 04:46:09;;;;;;;;;5.50;5.50;;;;;25.15;52.95;100595.84;5059576;28;45320;-62
2023/08/15 04:48:34;;;;;;;;;5.00;5.00;;;;;25.11;53.13;100594.47;5058473;28;45291;-62
2023/08/15 04:50:59;;;;;;;;;4.00;4.00;;;;;25.13;52.90;100605.94;5058262;28;45319;-65
2023/08/15 04:53:25;;;;;;;;;4.50;4.25;;;;;25.15;53.44;100600.41;5058167;28;49959;-63
2023/08/15 04:55:50;;;;;;;;;4.75;4.75;;;;;25.13;53.47;100607.78;5058498;28;45304;-63
2023/08/15 04:58:15;;;;;;;;;5.00;5.00;;;;;25.12;53.17;100606.09;5058361;28;45347;-66
2023/08/15 05:00:41;;;;;;;;;3.75;3.75;;;;;25.10;53.41;100603.56;5058383;28;45531;-64
2023/08/15 05:03:07;;;;;;;;;4.75;4.75;;;;;25.13;53.24;100605.09;5057985;28;45467;-65
2023/08/15 05:05:32;;;;;;;;;4.00;4.00;;;;;25.11;53.57;100612.50;5057754;28;45386;-64
2023/08/15 05:07:57;;;;;;;;;4.50;4.50;;;;;25.07;53.31;100617.31;5058161;28;45338;-63
2023/08/15 05:10:23;;;;;;;;;5.25;5.25;;;;;25.11;53.68;100617.88;5058046;28;47281;-63
2023/08/15 05:12:48;;;;;;;;;5.00;5.00;;;;;25.08;53.52;100610.94;5057915;28;45753;-64
2023/08/15 05:15:14;;;;;;;;;5.50;5.50;;;;;25.15;53.55;100617.38;5039635;28;50690;-66
2023/08/15 05:17:39;;;;;;;;;4.00;4.00;;;;;25.12;53.68;100614.19;5059967;28;45315;-67
2023/08/15 05:20:05;;;;;;;;;3.00;3.00;;;;;25.18;53.74;100617.06;5058226;28;45504;-71
2023/08/15 05:22:33;;;;;;;;;4.00;4.00;;;;;25.19;53.26;100623.31;5057686;28;46178;-67
2023/08/15 05:24:59;;;;;;;;;4.25;4.25;;;;;25.17;53.55;100623.47;5057831;28;45333;-67
2023/08/15 05:27:24;;;;;;;;;7.00;7.00;;;;;25.19;53.88;100618.75;5058214;28;45337;-63
2023/08/15 05:29:50;;;;;;;;;5.50;5.50;;;;;25.24;53.53;100621.81;5057073;28;45401;-67
2023/08/15 05:32:15;;;;;;;;;4.00;4.00;;;;;25.31;53.53;100629.28;5057244;28;56032;-67
2023/08/15 05:34:40;;;;;;;;;6.00;6.00;;;;;25.34;53.23;100626.25;5057619;28;45315;-66
2023/08/15 05:37:06;;;;;;;;;4.00;4.00;;;;;25.40;53.79;100619.41;5057472;28;55373;-64
2023/08/15 05:39:31;;;;;;;;;6.50;6.50;;;;;25.35;53.64;100622.56;5057549;28;54386;-64
2023/08/15 05:41:57;;;;;;;;;5.00;5.00;;;;;25.38;53.35;100627.63;5058217;28;46537;-62
2023/08/15 05:44:22;;;;;;;;;3.25;3.25;;;;;25.43;53.58;100633.38;5060351;28;45329;-65
2023/08/15 05:46:47;;;;;;;;;6.50;6.50;;;;;25.50;53.18;100633.66;5064062;28;45303;-64
2023/08/15 05:49:12;;;;;;;;;5.50;5.50;;;;;25.49;53.28;100638.22;5063459;28;49365;-66
2023/08/15 05:51:38;;;;;;;;;4.00;4.00;;;;;25.49;53.21;100634.66;5062665;28;51876;-66
2023/08/15 05:54:03;;;;;;;;;4.25;4.25;;;;;25.54;53.63;100643.09;5069216;28;56828;-66
2023/08/15 05:56:28;;;;;;;;;7.00;5.00;;;;;25.54;53.53;100642.28;5069202;28;45351;-68
2023/08/15 05:58:54;;;;;;;;;4.00;4.00;;;;;25.60;53.08;100641.63;5067012;28;45653;-66
2023/08/15 06:01:21;;;;;;;;;4.75;4.75;;;;;25.62;53.33;100648.53;5067668;28;54042;-68
2023/08/15 06:03:46;;;;;;;;;5.00;5.00;;;;;25.63;53.61;100652.91;5059653;28;45819;-70
2023/08/15 06:06:12;;;;;;;;;5.50;5.50;;;;;25.63;53.22;100658.31;5060926;28;45215;-66
2023/08/15 06:08:37;;;;;;;;;4.50;4.50;;;;;25.65;53.39;100660.84;5069151;28;45182;-65
2023/08/15 06:11:02;;;;;;;;;4.25;4.25;;;;;25.68;53.35;100657.84;5068395;28;69463;-66
2023/08/15 06:13:29;;;;;;;;;5.00;5.00;;;;;25.77;53.38;100670.34;5062455;28;45345;-65
2023/08/15 06:15:54;;;;;;;;;4.00;4.00;;;;;25.80;52.74;100664.66;5057381;28;45935;-67
2023/08/15 06:18:19;;;;;;;;;4.00;4.00;;;;;25.84;52.95;100683.19;5058204;28;45374;-65
2023/08/15 06:20:45;;;;;;;;;4.75;4.75;;;;;25.86;52.98;100679.31;5056883;28;50734;-69
2023/08/15 06:23:10;;;;;;;;;5.75;5.75;;;;;25.84;52.99;100684.00;5057245;28;45372;-67
2023/08/15 06:25:39;;;;;;;;;4.50;4.50;;;;;25.89;52.91;100694.31;5056574;28;45349;-66
2023/08/15 06:28:04;;;;;;;;;5.00;4.25;;;;;25.81;52.35;100690.59;5061002;28;44842;-68
2023/08/15 06:30:30;;;;;;;;;5.50;5.50;;;;;25.79;52.85;100699.81;5056922;28;45359;-66
2023/08/15 06:32:55;;;;;;;;;4.00;4.00;;;;;25.78;53.46;100698.13;5059388;28;45255;-68
2023/08/15 06:35:27;;;;;;;;;3.75;3.75;;;;;25.76;53.29;100700.13;5057508;28;45405;-67
2023/08/15 06:37:52;;;;;;;;;8.00;8.00;;;;;25.78;52.73;100706.22;5039352;28;45388;-68
2023/08/15 06:40:17;;;;;;;;;5.75;5.75;;;;;25.85;52.96;100711.81;5056831;28;59020;-64
2023/08/15 06:42:43;;;;;;;;;5.00;5.00;;;;;25.91;53.01;100713.88;5056794;28;45573;-64
2023/08/15 06:45:13;;;;;;;;;5.00;5.00;;;;;25.81;52.92;100706.75;5056301;28;45366;-64
2023/08/15 06:47:39;;;;;;;;;6.25;6.25;;;;;25.86;53.07;100722.41;5056720;28;45278;-63
2023/08/15 06:50:06;;;;;;;;;5.50;5.50;;;;;25.87;53.14;100725.97;5056188;28;47127;-67
2023/08/15 06:52:31;;;;;;;;;3.50;3.50;;;;;25.89;53.21;100727.50;5055968;28;45346;-63
2023/08/15 06:54:56;;;;;;;;;5.00;5.00;;;;;25.85;53.29;100730.69;5056459;28;45386;-63
2023/08/15 06:57:21;;;;;;;;;4.25;4.25;;;;;25.88;53.53;100736.56;5056561;28;45617;-63
2023/08/15 06:59:47;;;;;;;;;4.50;3.75;;;;;25.90;53.43;100736.44;5037233;28;65779;-68
2023/08/15 07:02:12;;;;;;;;;5.00;5.00;;;;;25.88;53.66;100746.53;5060370;28;45291;-67
2023/08/15 07:04:40;;;;;;;;;6.75;6.25;;;;;25.87;53.62;100742.97;5058607;28;49635;-65
2023/08/15 07:07:09;;;;;;;;;4.50;4.50;;;;;25.90;53.83;100745.34;5057538;28;45454;-64
2023/08/15 07:09:35;;;;;;;;;3.00;3.00;;;;;26.02;53.60;100745.94;5055921;28;45412;-69
2023/08/15 07:12:01;;;;;;;;;3.75;3.75;;;;;26.11;53.49;100742.28;5056690;28;45399;-66
2023/08/15 07:14:27;;;;;;;;;4.00;4.00;;;;;26.11;53.62;100741.47;5055949;28;45396;-67
2023/08/15 07:16:52;;;;;;;;;6.00;6.00;;;;;26.22;53.46;100743.91;5056576;28;45271;-63
2023/08/15 07:19:17;;;;;;;;;4.00;4.00;;;;;26.27;53.17;100751.50;5056011;28;45352;-65
2023/08/15 07:21:44;;;;;;;;;6.75;6.75;;;;;26.32;53.16;100749.16;5055684;28;47269;-67
2023/08/15 07:24:10;;;;;;;;;4.75;4.00;;;;;26.23;53.17;100742.03;5055889;28;45409;-64
2023/08/15 07:26:36;;;;;;;;;3.25;3.25;;;;;26.30;53.48;100756.56;5055864;28;45329;-63
2023/08/15 07:29:01;;;;;;;;;5.00;5.00;;;;;26.34;53.32;100759.78;5055645;28;45571;-65
2023/08/15 07:31:27;;;;;;;;;5.00;5.00;;;;;26.34;52.98;100760.63;5056089;28;45312;-63
2023/08/15 07:33:52;;;;;;;;;4.50;4.50;;;;;26.39;53.21;100762.84;5054211;28;45315;-64
2023/08/15 07:36:18;;;;;;;;;6.00;6.00;;;;;26.46;52.93;100760.34;5055824;28;45274;-63
2023/08/15 07:38:43;;;;;;;;;6.00;6.00;;;;;26.48;52.81;100769.13;5055474;28;45350;-64
2023/08/15 07:41:08;;;;;;;;;4.50;4.50;;;;;26.50;52.50;100757.16;5055377;28;61215;-67
2023/08/15 07:43:33;;;;;;;;;6.00;6.00;;;;;26.65;52.66;100765.50;5054936;28;53079;-68
2023/08/15 07:45:59;;;;;;;;;4.75;4.75;;;;;26.78;51.87;100758.78;5055903;28;45217;-68
2023/08/15 07:48:24;;;;;;;;;3.00;3.00;;;;;26.83;52.52;100762.69;5055223;28;45368;-67
2023/08/15 07:50:50;;;;;;;;;5.00;5.00;;;;;26.96;52.14;100762.25;5054452;28;63720;-66
2023/08/15 07:53:15;;;;;;;;;4.25;4.25;;;;;27.11;51.66;100761.59;5055447;28;45406;-67
2023/08/15 07:55:41;;;;;;;;;7.75;7.75;;;;;27.22;51.36;100757.75;5055236;28;45559;-69
2023/08/15 07:58:06;;;;;;;;;4.50;4.50;;;;;27.38;51.10;100763.16;5054863;28;47865;-67
2023/08/15 08:00:31;;;;;;;;;6.75;5.50;;;;;27.54;51.42;100759.63;5055243;28;45298;-66
2023/08/15 08:02:59;;;;;;;;;4.00;4.00;;;;;27.70;50.50;100763.34;5055225;28;45264;-67
2023/08/15 08:05:25;;;;;;;;;4.00;4.00;;;;;27.70;50.67;100750.66;5055354;28;45569;-63
2023/08/15 08:07:51;;;;;;;;;4.00;4.00;;;;;27.87;50.46;100750.63;5054726;28;45395;-68
2023/08/15 08:10:16;;;;;;;;;4.00;4.00;;;;;27.98;50.20;100738.63;5057702;28;45342;-70
2023/08/15 08:12:42;;;;;;;;;4.25;4.25;;;;;28.06;50.04;100745.88;5058738;28;45395;-66
2023/08/15 08:15:08;;;;;;;;;7.50;6.75;;;;;28.05;49.85;100745.03;5040575;28;45268;-65
2023/08/15 08:17:33;;;;;;;;;4.25;4.25;;;;;28.16;49.13;100745.72;5058715;28;46084;-67
2023/08/15 08:19:59;;;;;;;;;27.50;27.25;;;;;28.26;49.38;100747.22;5058215;28;45359;-68
2023/08/15 08:22:24;;;;;;;;;5.25;5.25;;;;;28.29;48.67;100746.00;5058902;28;45993;-69
2023/08/15 08:24:53;;;;;;;;;8.25;8.25;;;;;28.43;48.31;100741.72;5058958;28;45639;-68
2023/08/15 08:27:18;;;;;;;;;4.75;4.50;;;;;28.40;48.77;100739.38;5058287;28;46378;-66
2023/08/15 08:29:44;;;;;;;;;4.00;4.00;;;;;28.40;48.29;100740.22;5058333;28;45494;-69
2023/08/15 08:32:09;;;;;;;;;3.00;3.00;;;;;28.53;47.83;100738.78;5058169;28;46510;-67
2023/08/15 08:34:35;;;;;;;;;5.00;5.00;;;;;28.54;47.59;100735.06;5059119;28;45807;-68
2023/08/15 08:37:00;;;;;;;;;8.75;8.75;;;;;28.58;48.10;100725.59;5058518;28;45352;-65
2023/08/15 08:39:26;;;;;;;;;4.00;4.00;;;;;28.65;47.56;100729.28;5058348;28;45323;-65
2023/08/15 08:41:51;;;;;;;;;3.00;3.00;;;;;28.66;47.84;100728.28;5058021;28;45431;-64
2023/08/15 08:44:18;;;;;;;;;1.50;1.50;;;;;28.79;47.72;100732.28;5058249;28;45530;-64
2023/08/15 08:46:44;;;;;;;;;5.75;5.25;;;;;28.84;47.54;100728.00;5058056;28;45372;-64
2023/08/15 08:49:11;;;;;;;;;13.75;13.75;;;;;29.05;47.23;100726.50;5057698;28;45528;-66
2023/08/15 08:51:37;;;;;;;;;5.50;5.50;;;;;29.22;46.38;100735.38;5058153;28;45318;-64
2023/08/15 08:54:02;;;;;;;;;5.25;5.25;;;;;29.26;46.08;100735.88;5058306;28;45300;-63
2023/08/15 08:56:31;;;;;;;;;2.00;2.00;;;;;29.35;45.64;100733.91;5039554;28;47638;-62
2023/08/15 08:59:01;;;;;;;;;9.00;9.00;;;;;29.37;45.63;100734.56;5057793;28;45228;-67
2023/08/15 09:01:31;;;;;;;;;5.00;5.00;;;;;29.39;45.88;100736.13;5058114;28;45379;-68
2023/08/15 09:03:57;;;;;;;;;4.00;4.00;;;;;29.38;45.63;100737.13;5060996;28;45517;-68
2023/08/15 09:06:24;;;;;;;;;4.75;4.75;;;;;29.43;45.12;100744.72;5063032;28;46399;-69
2023/08/15 09:08:50;;;;;;;;;4.75;4.75;;;;;29.46;45.10;100746.22;5057713;28;45446;-67
2023/08/15 09:11:15;;;;;;;;;3.75;3.75;;;;;29.50;44.64;100748.38;5057734;28;45339;-68
2023/08/15 09:13:48;;;;;;;;;4.00;4.00;;;;;29.54;44.90;100741.56;5057935;28;45530;-67
2023/08/15 09:16:15;;;;;;;;;8.50;8.50;;;;;29.64;45.13;100746.72;5039825;28;46126;-67
2023/08/15 09:18:40;;;;;;;;;4.00;4.00;;;;;29.66;44.91;100746.53;5056294;28;45489;-69
2023/08/15 09:21:05;;;;;;;;;4.25;4.25;;;;;29.71;44.72;100750.38;5056556;28;45317;-68
2023/08/15 09:23:31;;;;;;;;;3.50;3.50;;;;;29.82;44.82;100751.81;5057466;28;45664;-68
2023/08/15 09:25:56;;;;;;;;;4.00;4.00;;;;;29.95;44.21;100758.47;5057008;28;45613;-70
2023/08/15 09:28:22;;;;;;;;;14.50;14.50;;;;;30.03;43.89;100758.41;5056608;28;63395;-69
2023/08/15 09:30:54;;;;;;;;;4.00;4.00;;;;;30.04;43.64;100743.81;5057468;28;45360;-68
2023/08/15 09:33:20;;;;;;;;;2.50;2.50;;;;;29.96;43.25;100760.16;5057427;28;45449;-66
2023/08/15 09:35:45;;;;;;;;;3.00;3.00;;;;;30.03;43.55;100755.69;5057008;28;45486;-65
2023/08/15 09:38:11;;;;;;;;;4.00;4.00;;;;;29.99;43.45;100748.94;5056909;28;45337;-66
2023/08/15 09:40:37;;;;;;;;;4.00;4.00;;;;;30.24;43.42;100748.69;5057960;28;45401;-67
2023/08/15 09:43:03;;;;;;;;;2.75;2.75;;;;;30.27;43.00;100753.72;5039210;28;45550;-64
2023/08/15 09:45:29;;;;;;;;;6.00;6.00;;;;;30.35;42.93;100753.63;5056742;28;46911;-65
2023/08/15 09:47:55;;;;;;;;;6.00;6.00;;;;;30.52;42.77;100754.28;5038963;28;45348;-67
2023/08/15 09:50:21;;;;;;;;;5.50;5.50;;;;;30.74;42.15;100751.63;5056776;28;45191;-68
2023/08/15 09:52:47;;;;;;;;;3.00;3.00;;;;;30.79;41.95;100754.63;5057378;28;45248;-65
2023/08/15 09:55:14;;;;;;;;;4.00;4.00;;;;;30.73;42.27;100753.50;5056773;28;45723;-69
2023/08/15 09:57:42;;;;;;;;;4.00;4.00;;;;;30.81;42.37;100757.16;5057198;28;45823;-68
2023/08/15 10:00:11;;;;;;;;;4.50;3.75;;;;;30.93;42.07;100755.63;5056850;28;45423;-64
2023/08/15 10:02:43;;;;;;;;;3.50;3.50;;;;;31.08;41.80;100749.28;5056892;28;45257;-64
2023/08/15 10:05:11;;;;;;;;;3.25;3.25;;;;;31.15;41.60;100731.19;5056183;28;46966;-66
2023/08/15 10:07:37;;;;;;;;;4.50;4.50;;;;;31.29;41.67;100749.31;5038736;28;46036;-63
2023/08/15 10:10:04;;;;;;;;;3.00;3.00;;;;;31.17;41.50;100750.84;5056598;28;45354;-68
2023/08/15 10:12:30;;;;;;;;;4.75;4.75;;;;;30.94;41.41;100751.88;5056840;28;45632;-69
2023/08/15 10:14:58;;;;;;;;;4.25;4.25;;;;;30.86;41.72;100744.66;5056668;28;45380;-66
2023/08/15 10:17:29;;;;;;;;;3.00;3.00;;;;;30.86;41.63;100760.13;5056267;28;45529;-70
2023/08/15 10:19:59;;;;;;;;;4.00;4.00;;;;;30.92;41.71;100755.78;5056222;28;45552;-67
2023/08/15 10:22:24;;;;;;;;;4.25;4.25;;;;;30.85;41.62;100753.84;5056903;28;45312;-68
2023/08/15 10:24:50;;;;;;;;;2.75;2.75;;;;;30.85;41.93;100750.31;5055477;28;59844;-65
2023/08/15 10:27:15;;;;;;;;;4.00;4.00;;;;;30.78;41.94;100757.53;5056157;28;45378;-67
2023/08/15 10:29:58;;;;;;;;;3.75;3.75;;;;;30.78;41.96;100752.94;5056952;28;45303;-65
2023/08/15 10:32:25;;;;;;;;;4.25;4.25;;;;;30.86;41.70;100757.44;5056058;28;45323;-66
2023/08/15 10:34:58;;;;;;;;;3.25;3.25;;;;;30.88;41.74;100758.06;5037814;28;45987;-66
2023/08/15 10:37:32;;;;;;;;;4.25;4.25;;;;;31.02;41.79;100765.31;5055115;28;45339;-65
2023/08/15 10:40:08;;;;;;;;;5.50;5.50;;;;;31.24;40.95;100759.94;5056164;28;45526;-65
2023/08/15 10:43:02;;;;;;;;;17.75;17.75;;;;;31.48;40.94;100755.13;5054749;28;45299;-67
2023/08/15 10:45:35;;;;;;;;;11.75;11.75;;;;;31.57;40.78;100759.38;5037696;28;46034;-68
2023/08/15 10:48:00;;;;;;;;;5.50;5.50;;;;;31.65;40.53;100749.38;5056421;28;45413;-66
2023/08/15 10:50:26;;;;;;;;;5.25;5.25;;;;;31.73;40.45;100763.69;5056857;28;45407;-65
2023/08/15 10:53:05;;;;;;;;;4.00;4.00;;;;;31.71;40.35;100759.47;5037670;28;45669;-64
2023/08/15 10:55:36;;;;;;;;;4.25;4.25;;;;;31.76;39.84;100762.47;5037414;28;47722;-64
2023/08/15 10:58:07;;;;;;;;;7.00;7.00;;;;;31.94;39.75;100758.44;5055680;28;45363;-64
2023/08/15 11:00:33;;;;;;;;;3.75;3.75;;;;;32.05;39.79;100763.31;5055637;28;45331;-65
2023/08/15 11:03:01;;;;;;;;;2.25;2.25;;;;;32.14;39.80;100759.38;5056039;28;45596;-66
2023/08/15 11:05:28;;;;;;;;;5.00;5.00;;;;;32.23;39.87;100760.03;5055757;28;47246;-66
2023/08/15 11:07:55;;;;;;;;;5.75;5.75;;;;;32.25;39.17;100766.13;5055737;28;45379;-64
2023/08/15 11:10:22;;;;;;;;;2.25;2.25;;;;;32.16;39.35;100757.31;5055761;28;45336;-65
2023/08/15 11:12:49;;;;;;;;;5.50;5.50;;;;;32.02;39.59;100761.00;5056957;28;45260;-66
2023/08/15 11:15:17;;;;;;;;;6.50;6.50;;;;;31.95;39.56;100760.94;5055752;28;45428;-65
2023/08/15 11:17:46;;;;;;;;;4.25;4.25;;;;;31.99;39.18;100761.38;5056148;28;45459;-69
2023/08/15 11:20:12;;;;;;;;;4.00;4.00;;;;;31.89;39.30;100759.00;5056010;28;45377;-66
2023/08/15 11:22:37;;;;;;;;;6.25;6.25;;;;;31.76;39.46;100746.16;5055613;28;45552;-66